sensor_id;sensor_type;location;lat;lon;timestamp;P1;durP1;ratioP1;P2;durP2;ratioP2
51010;SDS011;37038;50.182;8.624;2023-02-10T00:00:37;87.80;;;47.25;;
51010;SDS011;37038;50.182;8.624;2023-02-10T00:03:25;87.82;;;46.33;;
51010;SDS011;37038;50.182;8.624;2023-02-10T00:06:13;88.50;;;47.53;;
51010;SDS011;37038;50.182;8.624;2023-02-10T00:09:03;93.82;;;47.28;;
51010;SDS011;37038;50.182;8.624;2023-02-10T00:11:50;84.15;;;46.35;;
51010;SDS011;37038;50.182;8.624;2023-02-10T00:14:44;89.22;;;46.90;;
51010;SDS011;37038;50.182;8.624;2023-02-10T00:17:35;89.65;;;48.10;;
51010;SDS011;37038;50.182;8.624;2023-02-10T00:20:23;91.05;;;47.03;;
51010;SDS011;37038;50.182;8.624;2023-02-10T00:23:10;88.78;;;47.60;;
51010;SDS011;37038;50.182;8.624;2023-02-10T00:26:01;93.72;;;47.03;;
51010;SDS011;37038;50.182;8.624;2023-02-10T00:28:50;86.13;;;47.22;;
51010;SDS011;37038;50.182;8.624;2023-02-10T00:31:38;87.07;;;46.75;;
51010;SDS011;37038;50.182;8.624;2023-02-10T00:34:27;87.57;;;47.45;;
51010;SDS011;37038;50.182;8.624;2023-02-10T00:37:15;93.32;;;44.70;;
51010;SDS011;37038;50.182;8.624;2023-02-10T00:40:03;97.00;;;48.05;;
51010;SDS011;37038;50.182;8.624;2023-02-10T00:42:51;95.93;;;49.35;;
51010;SDS011;37038;50.182;8.624;2023-02-10T00:45:39;86.47;;;46.42;;
51010;SDS011;37038;50.182;8.624;2023-02-10T00:48:26;89.80;;;45.33;;
51010;SDS011;37038;50.182;8.624;2023-02-10T00:51:14;93.55;;;49.22;;
51010;SDS011;37038;50.182;8.624;2023-02-10T00:54:03;94.45;;;48.17;;
51010;SDS011;37038;50.182;8.624;2023-02-10T00:56:51;91.38;;;47.42;;
51010;SDS011;37038;50.182;8.624;2023-02-10T00:59:38;86.13;;;44.42;;
51010;SDS011;37038;50.182;8.624;2023-02-10T01:02:26;84.30;;;45.28;;
51010;SDS011;37038;50.182;8.624;2023-02-10T01:05:14;85.40;;;44.60;;
51010;SDS011;37038;50.182;8.624;2023-02-10T01:08:02;83.10;;;45.60;;
51010;SDS011;37038;50.182;8.624;2023-02-10T01:10:57;86.75;;;44.13;;
51010;SDS011;37038;50.182;8.624;2023-02-10T01:13:56;85.80;;;45.20;;
51010;SDS011;37038;50.182;8.624;2023-02-10T01:16:44;94.43;;;45.88;;
51010;SDS011;37038;50.182;8.624;2023-02-10T01:19:31;91.53;;;45.25;;
51010;SDS011;37038;50.182;8.624;2023-02-10T01:22:19;88.75;;;46.75;;
51010;SDS011;37038;50.182;8.624;2023-02-10T01:25:07;84.55;;;44.45;;
51010;SDS011;37038;50.182;8.624;2023-02-10T01:27:57;86.20;;;46.20;;
51010;SDS011;37038;50.182;8.624;2023-02-10T01:30:44;85.55;;;46.22;;
51010;SDS011;37038;50.182;8.624;2023-02-10T01:33:33;88.68;;;45.88;;
51010;SDS011;37038;50.182;8.624;2023-02-10T01:36:21;83.80;;;44.13;;
51010;SDS011;37038;50.182;8.624;2023-02-10T01:39:10;82.75;;;43.80;;
51010;SDS011;37038;50.182;8.624;2023-02-10T01:41:58;82.05;;;43.58;;
51010;SDS011;37038;50.182;8.624;2023-02-10T01:47:33;83.10;;;44.45;;
51010;SDS011;37038;50.182;8.624;2023-02-10T01:50:23;92.35;;;45.80;;
51010;SDS011;37038;50.182;8.624;2023-02-10T01:53:14;90.20;;;44.90;;
51010;SDS011;37038;50.182;8.624;2023-02-10T01:56:02;82.63;;;45.75;;
51010;SDS011;37038;50.182;8.624;2023-02-10T01:58:50;84.95;;;46.78;;
51010;SDS011;37038;50.182;8.624;2023-02-10T02:01:38;85.40;;;45.38;;
51010;SDS011;37038;50.182;8.624;2023-02-10T02:04:26;86.47;;;44.78;;
51010;SDS011;37038;50.182;8.624;2023-02-10T02:07:14;94.70;;;47.90;;
51010;SDS011;37038;50.182;8.624;2023-02-10T02:10:04;86.45;;;47.05;;
51010;SDS011;37038;50.182;8.624;2023-02-10T02:12:57;91.38;;;48.33;;
51010;SDS011;37038;50.182;8.624;2023-02-10T02:16:10;89.38;;;48.63;;
51010;SDS011;37038;50.182;8.624;2023-02-10T02:33:04;90.40;;;47.45;;
51010;SDS011;37038;50.182;8.624;2023-02-10T02:36:10;82.65;;;47.05;;
51010;SDS011;37038;50.182;8.624;2023-02-10T02:39:04;85.35;;;47.72;;
51010;SDS011;37038;50.182;8.624;2023-02-10T02:41:59;91.07;;;48.83;;
51010;SDS011;37038;50.182;8.624;2023-02-10T02:45:04;87.65;;;47.47;;
51010;SDS011;37038;50.182;8.624;2023-02-10T02:48:05;86.65;;;47.58;;
51010;SDS011;37038;50.182;8.624;2023-02-10T02:54:45;88.30;;;45.95;;
51010;SDS011;37038;50.182;8.624;2023-02-10T02:57:58;84.45;;;46.50;;
51010;SDS011;37038;50.182;8.624;2023-02-10T03:00:54;89.18;;;45.13;;
51010;SDS011;37038;50.182;8.624;2023-02-10T03:03:47;82.00;;;44.33;;
51010;SDS011;37038;50.182;8.624;2023-02-10T03:06:36;85.05;;;45.83;;
51010;SDS011;37038;50.182;8.624;2023-02-10T03:09:24;86.88;;;47.83;;
51010;SDS011;37038;50.182;8.624;2023-02-10T03:12:12;81.65;;;46.13;;
51010;SDS011;37038;50.182;8.624;2023-02-10T03:15:00;86.55;;;47.58;;
51010;SDS011;37038;50.182;8.624;2023-02-10T03:17:48;82.85;;;46.45;;
51010;SDS011;37038;50.182;8.624;2023-02-10T03:20:36;86.72;;;47.50;;
51010;SDS011;37038;50.182;8.624;2023-02-10T03:23:24;85.72;;;49.22;;
51010;SDS011;37038;50.182;8.624;2023-02-10T03:26:12;83.20;;;46.05;;
51010;SDS011;37038;50.182;8.624;2023-02-10T03:29:00;88.95;;;48.28;;
51010;SDS011;37038;50.182;8.624;2023-02-10T03:31:48;84.90;;;45.50;;
51010;SDS011;37038;50.182;8.624;2023-02-10T03:34:37;83.40;;;46.05;;
51010;SDS011;37038;50.182;8.624;2023-02-10T03:37:24;80.25;;;44.78;;
51010;SDS011;37038;50.182;8.624;2023-02-10T03:40:12;82.82;;;46.15;;
51010;SDS011;37038;50.182;8.624;2023-02-10T03:43:01;87.70;;;49.53;;
51010;SDS011;37038;50.182;8.624;2023-02-10T03:45:49;82.78;;;47.67;;
51010;SDS011;37038;50.182;8.624;2023-02-10T03:48:37;85.20;;;47.47;;
51010;SDS011;37038;50.182;8.624;2023-02-10T03:51:24;85.38;;;47.65;;
51010;SDS011;37038;50.182;8.624;2023-02-10T03:54:13;80.28;;;45.75;;
51010;SDS011;37038;50.182;8.624;2023-02-10T03:57:00;81.35;;;46.85;;
51010;SDS011;37038;50.182;8.624;2023-02-10T03:59:49;86.22;;;48.20;;
51010;SDS011;37038;50.182;8.624;2023-02-10T04:02:37;84.63;;;46.22;;
51010;SDS011;37038;50.182;8.624;2023-02-10T04:05:24;81.32;;;46.95;;
51010;SDS011;37038;50.182;8.624;2023-02-10T04:08:12;89.88;;;46.85;;
51010;SDS011;37038;50.182;8.624;2023-02-10T04:11:02;80.57;;;46.15;;
51010;SDS011;37038;50.182;8.624;2023-02-10T04:13:51;84.55;;;47.03;;
51010;SDS011;37038;50.182;8.624;2023-02-10T04:16:39;93.05;;;47.75;;
51010;SDS011;37038;50.182;8.624;2023-02-10T04:19:27;85.07;;;47.00;;
51010;SDS011;37038;50.182;8.624;2023-02-10T04:22:15;80.10;;;47.65;;
51010;SDS011;37038;50.182;8.624;2023-02-10T04:25:04;82.38;;;45.38;;
51010;SDS011;37038;50.182;8.624;2023-02-10T04:27:52;90.65;;;48.53;;
51010;SDS011;37038;50.182;8.624;2023-02-10T04:30:40;87.88;;;49.80;;
51010;SDS011;37038;50.182;8.624;2023-02-10T04:33:28;89.20;;;46.55;;
51010;SDS011;37038;50.182;8.624;2023-02-10T04:36:16;86.53;;;46.63;;
51010;SDS011;37038;50.182;8.624;2023-02-10T04:39:05;83.13;;;48.42;;
51010;SDS011;37038;50.182;8.624;2023-02-10T04:41:52;80.70;;;46.20;;
51010;SDS011;37038;50.182;8.624;2023-02-10T04:44:40;90.82;;;47.13;;
51010;SDS011;37038;50.182;8.624;2023-02-10T04:47:29;81.97;;;47.20;;
51010;SDS011;37038;50.182;8.624;2023-02-10T04:50:18;81.68;;;45.60;;
51010;SDS011;37038;50.182;8.624;2023-02-10T04:53:06;76.95;;;43.83;;
51010;SDS011;37038;50.182;8.624;2023-02-10T04:55:54;84.45;;;44.88;;
51010;SDS011;37038;50.182;8.624;2023-02-10T04:58:42;78.97;;;46.30;;
51010;SDS011;37038;50.182;8.624;2023-02-10T05:01:31;78.10;;;43.78;;
51010;SDS011;37038;50.182;8.624;2023-02-10T05:04:19;80.88;;;46.10;;
51010;SDS011;37038;50.182;8.624;2023-02-10T05:07:07;81.85;;;43.60;;
51010;SDS011;37038;50.182;8.624;2023-02-10T05:09:55;75.88;;;43.80;;
51010;SDS011;37038;50.182;8.624;2023-02-10T05:12:44;82.75;;;44.30;;
51010;SDS011;37038;50.182;8.624;2023-02-10T05:15:33;75.65;;;44.67;;
51010;SDS011;37038;50.182;8.624;2023-02-10T05:18:20;81.38;;;43.20;;
51010;SDS011;37038;50.182;8.624;2023-02-10T05:21:10;82.00;;;42.60;;
51010;SDS011;37038;50.182;8.624;2023-02-10T05:24:00;78.35;;;44.75;;
51010;SDS011;37038;50.182;8.624;2023-02-10T05:26:49;72.70;;;43.58;;
51010;SDS011;37038;50.182;8.624;2023-02-10T05:29:36;80.43;;;43.65;;
51010;SDS011;37038;50.182;8.624;2023-02-10T05:32:24;82.20;;;44.10;;
51010;SDS011;37038;50.182;8.624;2023-02-10T05:35:13;83.97;;;44.40;;
51010;SDS011;37038;50.182;8.624;2023-02-10T05:38:01;81.80;;;44.60;;
51010;SDS011;37038;50.182;8.624;2023-02-10T05:40:49;76.63;;;43.08;;
51010;SDS011;37038;50.182;8.624;2023-02-10T05:43:39;76.47;;;43.00;;
51010;SDS011;37038;50.182;8.624;2023-02-10T05:46:27;76.55;;;44.65;;
51010;SDS011;37038;50.182;8.624;2023-02-10T05:49:15;80.15;;;44.35;;
51010;SDS011;37038;50.182;8.624;2023-02-10T05:52:04;78.55;;;44.25;;
51010;SDS011;37038;50.182;8.624;2023-02-10T05:54:52;76.47;;;43.00;;
51010;SDS011;37038;50.182;8.624;2023-02-10T05:57:40;74.05;;;41.53;;
51010;SDS011;37038;50.182;8.624;2023-02-10T06:00:29;82.20;;;43.33;;
51010;SDS011;37038;50.182;8.624;2023-02-10T06:03:17;75.13;;;41.20;;
51010;SDS011;37038;50.182;8.624;2023-02-10T06:06:05;74.68;;;42.28;;
51010;SDS011;37038;50.182;8.624;2023-02-10T06:08:53;79.93;;;42.70;;
51010;SDS011;37038;50.182;8.624;2023-02-10T06:11:41;73.97;;;40.80;;
51010;SDS011;37038;50.182;8.624;2023-02-10T06:14:29;80.30;;;42.05;;
51010;SDS011;37038;50.182;8.624;2023-02-10T06:17:17;82.38;;;40.85;;
51010;SDS011;37038;50.182;8.624;2023-02-10T06:20:06;72.63;;;43.40;;
51010;SDS011;37038;50.182;8.624;2023-02-10T06:22:55;70.65;;;42.50;;
51010;SDS011;37038;50.182;8.624;2023-02-10T06:25:43;76.90;;;44.83;;
51010;SDS011;37038;50.182;8.624;2023-02-10T06:28:32;77.93;;;44.22;;
51010;SDS011;37038;50.182;8.624;2023-02-10T06:31:20;77.78;;;43.50;;
51010;SDS011;37038;50.182;8.624;2023-02-10T06:34:08;79.45;;;44.65;;
51010;SDS011;37038;50.182;8.624;2023-02-10T06:36:57;80.40;;;42.90;;
51010;SDS011;37038;50.182;8.624;2023-02-10T06:39:44;74.32;;;42.72;;
51010;SDS011;37038;50.182;8.624;2023-02-10T06:42:35;77.60;;;43.88;;
51010;SDS011;37038;50.182;8.624;2023-02-10T06:45:27;72.47;;;43.25;;
51010;SDS011;37038;50.182;8.624;2023-02-10T06:48:40;78.20;;;41.72;;
51010;SDS011;37038;50.182;8.624;2023-02-10T06:51:34;83.35;;;42.78;;
51010;SDS011;37038;50.182;8.624;2023-02-10T06:54:40;78.65;;;44.53;;
51010;SDS011;37038;50.182;8.624;2023-02-10T06:57:29;82.60;;;45.08;;
51010;SDS011;37038;50.182;8.624;2023-02-10T07:00:18;89.60;;;44.40;;
51010;SDS011;37038;50.182;8.624;2023-02-10T07:03:10;83.50;;;45.47;;
51010;SDS011;37038;50.182;8.624;2023-02-10T07:08:41;82.47;;;45.05;;
51010;SDS011;37038;50.182;8.624;2023-02-10T07:11:57;81.15;;;45.75;;
51010;SDS011;37038;50.182;8.624;2023-02-10T07:14:49;78.15;;;46.22;;
51010;SDS011;37038;50.182;8.624;2023-02-10T07:17:39;81.65;;;47.00;;
51010;SDS011;37038;50.182;8.624;2023-02-10T07:20:38;86.18;;;43.17;;
51010;SDS011;37038;50.182;8.624;2023-02-10T07:28:54;77.55;;;46.15;;
51010;SDS011;37038;50.182;8.624;2023-02-10T07:31:56;77.53;;;44.42;;
51010;SDS011;37038;50.182;8.624;2023-02-10T07:35:05;73.20;;;42.08;;
51010;SDS011;37038;50.182;8.624;2023-02-10T07:37:59;86.65;;;45.67;;
51010;SDS011;37038;50.182;8.624;2023-02-10T07:40:50;83.57;;;43.33;;
51010;SDS011;37038;50.182;8.624;2023-02-10T07:46:45;69.35;;;41.92;;
51010;SDS011;37038;50.182;8.624;2023-02-10T07:49:40;72.88;;;41.65;;
51010;SDS011;37038;50.182;8.624;2023-02-10T07:52:41;72.07;;;41.17;;
51010;SDS011;37038;50.182;8.624;2023-02-10T07:55:50;74.00;;;42.72;;
51010;SDS011;37038;50.182;8.624;2023-02-10T07:58:45;75.95;;;42.63;;
51010;SDS011;37038;50.182;8.624;2023-02-10T08:02:00;67.55;;;40.15;;
51010;SDS011;37038;50.182;8.624;2023-02-10T08:05:29;76.47;;;42.30;;
51010;SDS011;37038;50.182;8.624;2023-02-10T08:08:47;70.88;;;42.08;;
51010;SDS011;37038;50.182;8.624;2023-02-10T08:11:43;70.88;;;41.78;;
51010;SDS011;37038;50.182;8.624;2023-02-10T08:14:35;70.20;;;42.08;;
51010;SDS011;37038;50.182;8.624;2023-02-10T08:17:24;74.05;;;43.10;;
51010;SDS011;37038;50.182;8.624;2023-02-10T08:23:19;71.68;;;42.25;;
51010;SDS011;37038;50.182;8.624;2023-02-10T08:26:15;70.88;;;42.60;;
51010;SDS011;37038;50.182;8.624;2023-02-10T08:29:06;77.70;;;45.25;;
51010;SDS011;37038;50.182;8.624;2023-02-10T08:31:55;77.68;;;44.88;;
51010;SDS011;37038;50.182;8.624;2023-02-10T08:34:43;74.20;;;42.97;;
51010;SDS011;37038;50.182;8.624;2023-02-10T08:37:36;74.25;;;44.53;;
51010;SDS011;37038;50.182;8.624;2023-02-10T08:40:27;73.13;;;44.88;;
51010;SDS011;37038;50.182;8.624;2023-02-10T08:43:18;69.97;;;41.60;;
51010;SDS011;37038;50.182;8.624;2023-02-10T08:46:06;73.28;;;42.50;;
51010;SDS011;37038;50.182;8.624;2023-02-10T08:48:55;76.32;;;44.30;;
51010;SDS011;37038;50.182;8.624;2023-02-10T08:51:44;74.68;;;43.53;;
51010;SDS011;37038;50.182;8.624;2023-02-10T08:54:33;68.00;;;42.08;;
51010;SDS011;37038;50.182;8.624;2023-02-10T08:57:23;72.85;;;42.40;;
51010;SDS011;37038;50.182;8.624;2023-02-10T09:00:12;72.55;;;44.05;;
51010;SDS011;37038;50.182;8.624;2023-02-10T09:03:00;65.18;;;43.30;;
51010;SDS011;37038;50.182;8.624;2023-02-10T09:05:48;68.43;;;44.15;;
51010;SDS011;37038;50.182;8.624;2023-02-10T09:08:37;69.28;;;43.97;;
51010;SDS011;37038;50.182;8.624;2023-02-10T09:11:25;73.70;;;43.65;;
51010;SDS011;37038;50.182;8.624;2023-02-10T09:14:16;66.65;;;41.35;;
51010;SDS011;37038;50.182;8.624;2023-02-10T09:17:05;76.85;;;45.38;;
51010;SDS011;37038;50.182;8.624;2023-02-10T09:19:55;71.30;;;43.72;;
51010;SDS011;37038;50.182;8.624;2023-02-10T09:22:43;71.55;;;43.40;;
51010;SDS011;37038;50.182;8.624;2023-02-10T09:25:34;70.53;;;43.92;;
51010;SDS011;37038;50.182;8.624;2023-02-10T09:28:22;66.95;;;41.08;;
51010;SDS011;37038;50.182;8.624;2023-02-10T09:31:12;67.82;;;42.30;;
51010;SDS011;37038;50.182;8.624;2023-02-10T09:34:00;70.03;;;42.60;;
51010;SDS011;37038;50.182;8.624;2023-02-10T09:36:50;72.80;;;43.92;;
51010;SDS011;37038;50.182;8.624;2023-02-10T09:39:39;62.17;;;41.90;;
51010;SDS011;37038;50.182;8.624;2023-02-10T09:42:41;69.15;;;44.53;;
51010;SDS011;37038;50.182;8.624;2023-02-10T09:45:50;66.22;;;41.60;;
51010;SDS011;37038;50.182;8.624;2023-02-10T09:55:35;60.42;;;39.35;;
51010;SDS011;37038;50.182;8.624;2023-02-10T09:58:34;69.43;;;43.75;;
51010;SDS011;37038;50.182;8.624;2023-02-10T10:01:48;62.17;;;39.80;;
51010;SDS011;37038;50.182;8.624;2023-02-10T10:04:40;62.85;;;39.28;;
51010;SDS011;37038;50.182;8.624;2023-02-10T10:07:35;61.70;;;39.15;;
51010;SDS011;37038;50.182;8.624;2023-02-10T10:10:32;59.92;;;41.42;;
51010;SDS011;37038;50.182;8.624;2023-02-10T10:13:28;69.90;;;41.75;;
51010;SDS011;37038;50.182;8.624;2023-02-10T10:19:37;62.63;;;40.80;;
51010;SDS011;37038;50.182;8.624;2023-02-10T10:32:44;63.70;;;41.40;;
51010;SDS011;37038;50.182;8.624;2023-02-10T10:35:37;74.10;;;42.55;;
51010;SDS011;37038;50.182;8.624;2023-02-10T10:38:29;72.07;;;42.08;;
51010;SDS011;37038;50.182;8.624;2023-02-10T10:41:20;70.30;;;42.00;;
51010;SDS011;37038;50.182;8.624;2023-02-10T10:44:15;69.70;;;42.97;;
51010;SDS011;37038;50.182;8.624;2023-02-10T10:47:06;77.68;;;41.33;;
51010;SDS011;37038;50.182;8.624;2023-02-10T10:49:57;70.63;;;43.00;;
51010;SDS011;37038;50.182;8.624;2023-02-10T10:52:46;65.80;;;41.13;;
51010;SDS011;37038;50.182;8.624;2023-02-10T10:55:46;66.40;;;41.90;;
51010;SDS011;37038;50.182;8.624;2023-02-10T10:58:39;66.18;;;41.05;;
51010;SDS011;37038;50.182;8.624;2023-02-10T11:01:37;68.13;;;42.22;;
51010;SDS011;37038;50.182;8.624;2023-02-10T11:04:28;68.53;;;42.97;;
51010;SDS011;37038;50.182;8.624;2023-02-10T11:07:19;65.72;;;41.78;;
51010;SDS011;37038;50.182;8.624;2023-02-10T11:10:19;56.78;;;34.00;;
51010;SDS011;37038;50.182;8.624;2023-02-10T11:13:19;69.90;;;43.05;;
51010;SDS011;37038;50.182;8.624;2023-02-10T11:16:10;69.53;;;44.63;;
51010;SDS011;37038;50.182;8.624;2023-02-10T11:19:03;68.55;;;42.78;;
51010;SDS011;37038;50.182;8.624;2023-02-10T11:21:53;68.25;;;44.08;;
51010;SDS011;37038;50.182;8.624;2023-02-10T11:24:47;67.38;;;41.65;;
51010;SDS011;37038;50.182;8.624;2023-02-10T11:27:49;73.95;;;44.58;;
51010;SDS011;37038;50.182;8.624;2023-02-10T11:30:38;74.15;;;44.65;;
51010;SDS011;37038;50.182;8.624;2023-02-10T11:33:28;76.68;;;44.53;;
51010;SDS011;37038;50.182;8.624;2023-02-10T11:39:20;68.57;;;42.00;;
51010;SDS011;37038;50.182;8.624;2023-02-10T11:42:25;67.53;;;42.60;;
51010;SDS011;37038;50.182;8.624;2023-02-10T11:45:22;70.05;;;44.97;;
51010;SDS011;37038;50.182;8.624;2023-02-10T11:48:18;68.43;;;43.42;;
51010;SDS011;37038;50.182;8.624;2023-02-10T11:51:14;71.97;;;45.53;;
51010;SDS011;37038;50.182;8.624;2023-02-10T11:54:05;71.82;;;43.80;;
51010;SDS011;37038;50.182;8.624;2023-02-10T12:00:30;66.78;;;43.13;;
51010;SDS011;37038;50.182;8.624;2023-02-10T12:16:02;67.75;;;42.17;;
51010;SDS011;37038;50.182;8.624;2023-02-10T12:19:03;73.97;;;44.00;;
51010;SDS011;37038;50.182;8.624;2023-02-10T12:25:38;72.18;;;44.20;;
51010;SDS011;37038;50.182;8.624;2023-02-10T12:32:34;67.38;;;42.20;;
51010;SDS011;37038;50.182;8.624;2023-02-10T12:42:17;67.03;;;42.78;;
51010;SDS011;37038;50.182;8.624;2023-02-10T12:45:32;65.78;;;41.67;;
51010;SDS011;37038;50.182;8.624;2023-02-10T12:52:14;72.47;;;42.88;;
51010;SDS011;37038;50.182;8.624;2023-02-10T12:58:08;68.18;;;40.05;;
51010;SDS011;37038;50.182;8.624;2023-02-10T13:01:18;60.03;;;39.03;;
51010;SDS011;37038;50.182;8.624;2023-02-10T13:04:29;65.75;;;40.40;;
51010;SDS011;37038;50.182;8.624;2023-02-10T13:07:28;59.88;;;40.50;;
51010;SDS011;37038;50.182;8.624;2023-02-10T13:10:33;54.63;;;39.30;;
51010;SDS011;37038;50.182;8.624;2023-02-10T13:13:26;57.17;;;40.22;;
51010;SDS011;37038;50.182;8.624;2023-02-10T13:16:20;58.95;;;38.70;;
51010;SDS011;37038;50.182;8.624;2023-02-10T13:22:23;54.47;;;38.28;;
51010;SDS011;37038;50.182;8.624;2023-02-10T13:25:37;58.40;;;38.17;;
51010;SDS011;37038;50.182;8.624;2023-02-10T13:35:16;60.13;;;40.85;;
51010;SDS011;37038;50.182;8.624;2023-02-10T13:38:09;64.15;;;40.50;;
51010;SDS011;37038;50.182;8.624;2023-02-10T13:41:05;61.58;;;41.05;;
51010;SDS011;37038;50.182;8.624;2023-02-10T13:44:30;58.45;;;39.42;;
51010;SDS011;37038;50.182;8.624;2023-02-10T13:47:49;63.53;;;40.45;;
51010;SDS011;37038;50.182;8.624;2023-02-10T13:50:42;62.75;;;41.65;;
51010;SDS011;37038;50.182;8.624;2023-02-10T13:56:25;58.42;;;39.45;;
51010;SDS011;37038;50.182;8.624;2023-02-10T14:02:14;54.72;;;40.13;;
51010;SDS011;37038;50.182;8.624;2023-02-10T14:05:20;58.60;;;37.75;;
51010;SDS011;37038;50.182;8.624;2023-02-10T14:08:24;61.95;;;39.88;;
51010;SDS011;37038;50.182;8.624;2023-02-10T14:17:22;57.88;;;37.28;;
51010;SDS011;37038;50.182;8.624;2023-02-10T14:20:20;61.55;;;41.13;;
51010;SDS011;37038;50.182;8.624;2023-02-10T14:23:18;64.80;;;41.03;;
51010;SDS011;37038;50.182;8.624;2023-02-10T14:26:17;63.40;;;40.20;;
51010;SDS011;37038;50.182;8.624;2023-02-10T14:29:12;62.28;;;40.20;;
51010;SDS011;37038;50.182;8.624;2023-02-10T14:32:04;64.05;;;39.75;;
51010;SDS011;37038;50.182;8.624;2023-02-10T14:35:02;62.28;;;39.67;;
51010;SDS011;37038;50.182;8.624;2023-02-10T14:38:04;60.13;;;39.13;;
51010;SDS011;37038;50.182;8.624;2023-02-10T14:40:54;65.75;;;39.63;;
51010;SDS011;37038;50.182;8.624;2023-02-10T14:43:43;59.45;;;39.95;;
51010;SDS011;37038;50.182;8.624;2023-02-10T14:46:31;67.13;;;41.17;;
51010;SDS011;37038;50.182;8.624;2023-02-10T14:49:21;64.85;;;42.33;;
51010;SDS011;37038;50.182;8.624;2023-02-10T14:52:27;63.83;;;40.17;;
51010;SDS011;37038;50.182;8.624;2023-02-10T14:55:35;62.25;;;39.22;;
51010;SDS011;37038;50.182;8.624;2023-02-10T14:58:26;65.40;;;38.90;;
51010;SDS011;37038;50.182;8.624;2023-02-10T15:01:24;63.28;;;42.50;;
51010;SDS011;37038;50.182;8.624;2023-02-10T15:04:20;62.80;;;42.20;;
51010;SDS011;37038;50.182;8.624;2023-02-10T15:07:26;66.15;;;42.15;;
51010;SDS011;37038;50.182;8.624;2023-02-10T15:10:22;65.90;;;42.28;;
51010;SDS011;37038;50.182;8.624;2023-02-10T15:13:23;60.58;;;40.88;;
51010;SDS011;37038;50.182;8.624;2023-02-10T15:16:17;62.70;;;40.28;;
51010;SDS011;37038;50.182;8.624;2023-02-10T15:19:12;60.58;;;41.10;;
51010;SDS011;37038;50.182;8.624;2023-02-10T15:22:02;65.03;;;43.08;;
51010;SDS011;37038;50.182;8.624;2023-02-10T15:28:26;62.40;;;40.20;;
51010;SDS011;37038;50.182;8.624;2023-02-10T15:31:26;58.10;;;39.87;;
51010;SDS011;37038;50.182;8.624;2023-02-10T15:34:21;61.75;;;41.38;;
51010;SDS011;37038;50.182;8.624;2023-02-10T15:37:21;64.15;;;40.05;;
51010;SDS011;37038;50.182;8.624;2023-02-10T15:40:16;63.10;;;41.75;;
51010;SDS011;37038;50.182;8.624;2023-02-10T15:43:23;61.22;;;40.88;;
51010;SDS011;37038;50.182;8.624;2023-02-10T15:46:18;67.07;;;41.47;;
51010;SDS011;37038;50.182;8.624;2023-02-10T15:49:15;57.97;;;39.28;;
51010;SDS011;37038;50.182;8.624;2023-02-10T15:52:09;64.88;;;41.15;;
51010;SDS011;37038;50.182;8.624;2023-02-10T15:55:02;62.33;;;41.10;;
51010;SDS011;37038;50.182;8.624;2023-02-10T15:58:08;63.70;;;41.53;;
51010;SDS011;37038;50.182;8.624;2023-02-10T16:01:12;67.65;;;40.67;;
51010;SDS011;37038;50.182;8.624;2023-02-10T16:04:10;60.42;;;41.33;;
51010;SDS011;37038;50.182;8.624;2023-02-10T16:06:58;62.65;;;39.80;;
51010;SDS011;37038;50.182;8.624;2023-02-10T16:09:49;67.88;;;43.17;;
51010;SDS011;37038;50.182;8.624;2023-02-10T16:12:38;61.47;;;41.85;;
51010;SDS011;37038;50.182;8.624;2023-02-10T16:15:26;68.22;;;42.92;;
51010;SDS011;37038;50.182;8.624;2023-02-10T16:18:28;62.45;;;41.58;;
51010;SDS011;37038;50.182;8.624;2023-02-10T16:21:22;64.68;;;41.05;;
51010;SDS011;37038;50.182;8.624;2023-02-10T16:24:17;67.80;;;42.15;;
51010;SDS011;37038;50.182;8.624;2023-02-10T16:27:14;64.57;;;40.55;;
51010;SDS011;37038;50.182;8.624;2023-02-10T16:30:13;61.65;;;41.63;;
51010;SDS011;37038;50.182;8.624;2023-02-10T16:33:10;71.60;;;45.47;;
51010;SDS011;37038;50.182;8.624;2023-02-10T16:36:00;70.50;;;45.22;;
51010;SDS011;37038;50.182;8.624;2023-02-10T16:38:54;68.35;;;43.97;;
51010;SDS011;37038;50.182;8.624;2023-02-10T16:41:48;69.82;;;42.97;;
51010;SDS011;37038;50.182;8.624;2023-02-10T16:44:38;69.20;;;44.42;;
51010;SDS011;37038;50.182;8.624;2023-02-10T16:47:40;71.90;;;45.03;;
51010;SDS011;37038;50.182;8.624;2023-02-10T16:50:33;75.57;;;47.78;;
51010;SDS011;37038;50.182;8.624;2023-02-10T16:53:41;70.90;;;44.67;;
51010;SDS011;37038;50.182;8.624;2023-02-10T16:56:43;68.18;;;43.83;;
51010;SDS011;37038;50.182;8.624;2023-02-10T16:59:41;65.03;;;42.83;;
51010;SDS011;37038;50.182;8.624;2023-02-10T17:02:29;68.60;;;45.80;;
51010;SDS011;37038;50.182;8.624;2023-02-10T17:05:18;86.88;;;51.90;;
51010;SDS011;37038;50.182;8.624;2023-02-10T17:08:09;78.53;;;49.38;;
51010;SDS011;37038;50.182;8.624;2023-02-10T17:11:07;77.82;;;47.08;;
51010;SDS011;37038;50.182;8.624;2023-02-10T17:13:56;70.68;;;45.88;;
51010;SDS011;37038;50.182;8.624;2023-02-10T17:16:44;68.40;;;42.00;;
51010;SDS011;37038;50.182;8.624;2023-02-10T17:19:34;70.70;;;46.20;;
51010;SDS011;37038;50.182;8.624;2023-02-10T17:22:22;77.85;;;46.17;;
51010;SDS011;37038;50.182;8.624;2023-02-10T17:25:13;75.32;;;46.03;;
51010;SDS011;37038;50.182;8.624;2023-02-10T17:28:01;74.45;;;48.13;;
51010;SDS011;37038;50.182;8.624;2023-02-10T17:30:51;78.82;;;48.03;;
51010;SDS011;37038;50.182;8.624;2023-02-10T17:33:39;73.55;;;46.72;;
51010;SDS011;37038;50.182;8.624;2023-02-10T17:36:39;79.00;;;49.72;;
51010;SDS011;37038;50.182;8.624;2023-02-10T17:39:36;81.55;;;50.42;;
51010;SDS011;37038;50.182;8.624;2023-02-10T17:42:35;82.70;;;50.58;;
51010;SDS011;37038;50.182;8.624;2023-02-10T17:45:23;91.75;;;51.45;;
51010;SDS011;37038;50.182;8.624;2023-02-10T17:48:28;85.68;;;48.85;;
51010;SDS011;37038;50.182;8.624;2023-02-10T17:51:23;89.03;;;51.70;;
51010;SDS011;37038;50.182;8.624;2023-02-10T17:54:17;81.05;;;49.88;;
51010;SDS011;37038;50.182;8.624;2023-02-10T17:57:16;84.25;;;50.22;;
51010;SDS011;37038;50.182;8.624;2023-02-10T18:00:17;85.13;;;50.15;;
51010;SDS011;37038;50.182;8.624;2023-02-10T18:03:08;84.40;;;51.72;;
51010;SDS011;37038;50.182;8.624;2023-02-10T18:06:05;80.30;;;52.63;;
51010;SDS011;37038;50.182;8.624;2023-02-10T18:09:01;84.00;;;53.00;;
51010;SDS011;37038;50.182;8.624;2023-02-10T18:11:55;83.53;;;51.45;;
51010;SDS011;37038;50.182;8.624;2023-02-10T18:14:51;90.72;;;52.85;;
51010;SDS011;37038;50.182;8.624;2023-02-10T18:17:44;82.32;;;51.58;;
51010;SDS011;37038;50.182;8.624;2023-02-10T18:20:35;79.00;;;51.45;;
51010;SDS011;37038;50.182;8.624;2023-02-10T18:23:31;87.00;;;52.70;;
51010;SDS011;37038;50.182;8.624;2023-02-10T18:26:20;86.72;;;53.05;;
51010;SDS011;37038;50.182;8.624;2023-02-10T18:29:17;79.10;;;49.28;;
51010;SDS011;37038;50.182;8.624;2023-02-10T18:32:10;87.93;;;53.33;;
51010;SDS011;37038;50.182;8.624;2023-02-10T18:34:58;90.65;;;53.38;;
51010;SDS011;37038;50.182;8.624;2023-02-10T18:38:11;87.63;;;53.05;;
51010;SDS011;37038;50.182;8.624;2023-02-10T18:41:02;88.10;;;55.05;;
51010;SDS011;37038;50.182;8.624;2023-02-10T18:43:54;83.57;;;51.72;;
51010;SDS011;37038;50.182;8.624;2023-02-10T18:46:45;85.22;;;52.40;;
51010;SDS011;37038;50.182;8.624;2023-02-10T18:49:38;83.50;;;51.67;;
51010;SDS011;37038;50.182;8.624;2023-02-10T18:52:28;88.00;;;49.50;;